• Join FlightAware (Why Join?)
  • Login
  • US Flag 
12:50AM EDT


 

Airport Tracker/Info


-or-


 

Live Flight TrackerFlight Track Log ✈ N328AJ ✈ 09-Jun-2014 ✈ KRSW - KEYW

Flight Track Log - Related Links

Times and Time Zones

All times are in EDT time to prevent confusion due to time zone crossing. See the N328AJ flight status page for this flight to view local times or setup timezone preferences in your user account.

Time Position Orientation Groundspeed Altitude Reporting Facility
EDT Latitude Longitude Course Direction KTS MPH feet Rate Location/Type
02:25PM 26.4294 -81.7783 173° South 214 246 3,400  Level Miami Center
02:26PM 26.3633 -81.7578 164° South 228 262 5,000 1,500 Climbing Miami Center
02:27PM 26.3006 -81.7408 166° South 230 265 6,500 1,440 Climbing Miami Center
02:28PM 26.2342 -81.7217 165° South 230 265 8,000 1,260 Climbing Miami Center
02:29PM 26.2133 -81.6805 173° South  Level FlightAware Approximate
02:29PM 26.1697 -81.7036 166° South 239 275 9,200  Level Miami Center
02:30PM 26.1482 -81.6712 173° South  Level FlightAware Approximate
02:30PM 26.0989 -81.6831 165° South 243 280 10,600  Level Miami Center
02:31PM 26.0314 -81.6650 166° South 249 287 11,100 240 Climbing Miami Center
02:32PM 25.9500 -81.6406 165° South 279 321 11,100  Level Miami Center
02:33PM 25.8744 -81.6192 166° South 282 325 11,100  Level Miami Center
02:34PM 25.7917 -81.5961 166° South 285 328 11,100  Level Miami Center
02:35PM 25.7161 -81.5739 165° South 285 328 11,100 -120 Level Miami Center
02:36PM 25.6464 -81.5558 167° South 285 328 10,900 -120 Descending Miami Center
02:37PM 25.5556 -81.5297 165° South 284 327 10,900 -240 Level Miami Center
02:38PM 25.4769 -81.5189 173° South 285 328 10,500 -420 Descending Miami Center
02:39PM 25.4017 -81.5375 193° South 297 342 10,100 -480 Descending Miami Center
02:40PM 25.3225 -81.5594 194° South 297 342 9,600 -540 Descending Miami Center
02:41PM 25.2247 -81.5847 193° South 297 342 9,000 -600 Descending Miami Center
02:42PM 25.1450 -81.6056 193° South 297 342 8,400 -540 Descending Miami Center
02:43PM 25.0664 -81.6269 194° South 296 341 7,900 -300 Descending Miami Center
02:44PM 24.9886 -81.6464 193° South 292 336 7,900  Level Miami Center
02:45PM 24.9144 -81.6661 194° South 280 322 7,900 -120 Level Miami Center
02:46PM 24.8400 -81.6853 193° South 278 320 7,700 -960 Descending Miami Center
02:47PM 24.7625 -81.7067 194° South 282 325 6,000 -1,920 Descending Miami Center
02:48PM 24.6728 -81.7369 197° South 283 326 3,800 -2,160 Descending Miami Center
02:49PM 24.6150 -81.7839 216° Southwest 276 318 1,600 -1,080 Descending Miami Center
02:51PM 24.5789 -81.8350 232° Southwest 239 275 1,600 -480 Level Miami Center
02:52PM 24.5553 -81.8033 129° Southeast 198 228 700 -780 Descending Miami Center
02:53PM 24.5564 -81.7564 88° East 169 194 100 -600 Descending Miami Center